Time;durP1;ratioP1;P1;durP2;ratioP2;P2;SDS_P1;SDS_P2;PMS_P1;PMS_P2;Temp;Humidity;BMP_temperature;BMP_pressure;BME280_temperature;BME280_humidity;BME280_pressure;Samples;Min_cycle;Max_cycle;Signal;HPM_P1;HPM_P2
2023/12/12 00:00:05;;;;;;;93.63;88.75;;;;;;;11.17;67.98;100724.34;5033728;28;20040;-69
2023/12/12 00:02:31;;;;;;;95.70;91.45;;;;;;;11.16;68.01;100717.31;5032226;28;20401;-69
2023/12/12 00:04:56;;;;;;;101.82;96.40;;;;;;;11.16;67.97;100722.72;5014204;28;20059;-70
2023/12/12 00:07:21;;;;;;;95.10;90.97;;;;;;;11.15;67.98;100718.38;5035982;28;20061;-69
2023/12/12 00:09:47;;;;;;;98.93;94.43;;;;;;;11.15;67.79;100721.06;5020535;28;20041;-70
2023/12/12 00:12:12;;;;;;;97.57;93.03;;;;;;;11.14;67.93;100729.44;5014075;28;20117;-69
2023/12/12 00:14:38;;;;;;;94.82;90.53;;;;;;;11.12;67.90;100721.56;5015383;28;20046;-72
2023/12/12 00:17:03;;;;;;;99.47;93.93;;;;;;;11.12;68.01;100732.38;5013412;28;20378;-70
2023/12/12 00:19:29;;;;;;;96.20;91.82;;;;;;;11.11;67.71;100727.22;5017597;28;20073;-69
2023/12/12 00:21:54;;;;;;;98.93;94.38;;;;;;;11.10;67.87;100729.09;5013342;28;20041;-69
2023/12/12 00:24:19;;;;;;;97.43;92.82;;;;;;;11.09;68.09;100730.19;5020105;28;20406;-71
2023/12/12 00:26:45;;;;;;;99.82;95.15;;;;;;;11.08;67.82;100727.72;5032626;28;20041;-72
2023/12/12 00:29:10;;;;;;;96.60;92.40;;;;;;;11.07;67.76;100723.38;5030942;28;20121;-69
2023/12/12 00:31:35;;;;;;;97.45;92.35;;;;;;;11.04;67.92;100717.41;5013066;28;20152;-70
2023/12/12 00:34:01;;;;;;;96.00;91.32;;;;;;;11.05;68.04;100720.91;5028860;28;20459;-69
2023/12/12 00:36:26;;;;;;;91.82;87.65;;;;;;;11.04;67.99;100730.91;5029996;28;20040;-69
2023/12/12 00:38:52;;;;;;;93.38;89.03;;;;;;;11.03;67.79;100718.44;5029128;28;20456;-69
2023/12/12 00:41:17;;;;;;;96.18;91.68;;;;;;;11.04;67.78;100720.09;5026050;28;20037;-69
2023/12/12 00:43:42;;;;;;;94.38;89.97;;;;;;;11.04;67.89;100713.88;5040809;28;20029;-71
2023/12/12 00:46:10;;;;;;;93.47;89.35;;;;;;;11.03;67.78;100707.63;5035883;28;20561;-68
2023/12/12 00:48:35;;;;;;;94.88;90.53;;;;;;;11.03;67.87;100720.34;5031086;28;20139;-72
2023/12/12 00:51:01;;;;;;;95.68;91.28;;;;;;;11.01;67.72;100712.50;5033986;28;20067;-68
2023/12/12 00:53:27;;;;;;;95.47;91.20;;;;;;;11.01;67.82;100717.91;5024030;28;20172;-69
2023/12/12 00:55:52;;;;;;;96.85;92.30;;;;;;;11.00;67.80;100716.25;5026525;28;20037;-69
2023/12/12 00:58:18;;;;;;;94.90;90.60;;;;;;;11.00;67.88;100716.25;5023914;28;20120;-68
2023/12/12 01:00:43;;;;;;;92.70;88.30;;;;;;;10.99;67.73;100711.09;5031528;28;20034;-71
2023/12/12 01:03:08;;;;;;;93.80;89.35;;;;;;;10.97;68.20;100711.34;5031507;28;20037;-69
2023/12/12 01:05:34;;;;;;;92.15;88.03;;;;;;;10.98;67.97;100709.44;5029928;28;20429;-69
2023/12/12 01:07:59;;;;;;;98.20;93.35;;;;;;;10.95;67.86;100702.66;5023135;28;20104;-70
2023/12/12 01:10:25;;;;;;;89.65;85.65;;;;;;;10.95;67.97;100707.25;5012816;28;20034;-69
2023/12/12 01:12:50;;;;;;;98.32;93.82;;;;;;;10.94;68.04;100702.91;5024617;28;20048;-69
2023/12/12 01:15:15;;;;;;;94.50;90.20;;;;;;;10.93;67.98;100701.25;5012794;28;20116;-69
2023/12/12 01:17:41;;;;;;;96.95;92.65;;;;;;;10.92;67.88;100694.22;5036935;28;20139;-69
2023/12/12 01:20:08;;;;;;;93.10;88.88;;;;;;;10.91;67.90;100690.72;5026080;28;20121;-70
2023/12/12 01:22:34;;;;;;;93.00;88.60;;;;;;;10.89;67.69;100690.13;5034933;28;20061;-69
2023/12/12 01:24:59;;;;;;;97.57;93.18;;;;;;;10.90;67.72;100696.34;5030515;28;20057;-70
2023/12/12 01:27:25;;;;;;;92.05;87.70;;;;;;;10.88;67.67;100680.38;5028670;28;20527;-69
2023/12/12 01:29:50;;;;;;;91.53;86.97;;;;;;;10.87;67.88;100691.44;5014808;28;20040;-70
2023/12/12 01:32:15;;;;;;;95.55;91.25;;;;;;;10.86;67.74;100692.50;5033443;28;20557;-69
2023/12/12 01:34:41;;;;;;;91.72;87.43;;;;;;;10.86;67.59;100692.50;5023236;28;20041;-69
2023/12/12 01:37:06;;;;;;;97.65;93.35;;;;;;;10.85;67.82;100696.28;5015934;28;20030;-68
2023/12/12 01:39:32;;;;;;;96.72;92.50;;;;;;;10.83;67.86;100699.22;5023560;28;20033;-70
2023/12/12 01:41:57;;;;;;;94.93;90.28;;;;;;;10.83;67.88;100691.09;5029957;28;20144;-70
2023/12/12 01:44:22;;;;;;;93.50;89.18;;;;;;;10.80;67.69;100689.72;5030412;28;20037;-70
2023/12/12 01:46:50;;;;;;;91.70;87.20;;;;;;;10.79;67.85;100693.50;5019238;28;20466;-72
2023/12/12 01:49:19;;;;;;;89.88;85.70;;;;;;;10.78;67.81;100681.03;5058289;28;20042;-69
2023/12/12 01:51:45;;;;;;;;;;;;;;;10.77;67.67;100684.81;5027115;28;20060;-69
2023/12/12 01:54:11;;;;;;;87.63;82.55;;;;;;;10.75;67.45;100691.50;5030681;28;20353;-69
2023/12/12 01:56:38;;;;;;;88.88;84.32;;;;;;;10.73;67.58;100691.75;5025815;28;20068;-69
2023/12/12 01:59:04;;;;;;;93.10;88.40;;;;;;;10.72;67.79;100692.81;5033625;28;20060;-70
2023/12/12 02:01:30;;;;;;;93.60;88.57;;;;;;;10.71;67.59;100693.91;5044152;28;20039;-68
2023/12/12 02:03:57;;;;;;;95.57;90.53;;;;;;;10.69;67.74;100698.72;5036527;28;20037;-70
2023/12/12 02:06:23;;;;;;;93.97;89.43;;;;;;;10.70;67.90;100696.84;5024767;28;20026;-69
2023/12/12 02:08:49;;;;;;;93.18;89.00;;;;;;;10.69;67.60;100697.91;5029277;28;20029;-72
2023/12/12 02:11:16;;;;;;;93.90;89.72;;;;;;;10.67;67.74;100692.75;5017295;28;20057;-69
2023/12/12 02:13:42;;;;;;;95.00;90.80;;;;;;;10.65;67.70;100686.75;5026283;28;20037;-69
2023/12/12 02:16:09;;;;;;;89.10;85.07;;;;;;;10.65;67.80;100680.53;5026337;28;20048;-69
2023/12/12 02:18:34;;;;;;;90.80;86.72;;;;;;;10.64;67.53;100679.72;5030821;28;20076;-70
2023/12/12 02:21:00;;;;;;;93.80;88.78;;;;;;;10.62;67.79;100679.16;5045072;28;20064;-69
2023/12/12 02:23:30;;;;;;;96.68;91.95;;;;;;;10.63;67.57;100671.84;5024768;28;20064;-68
2023/12/12 02:25:55;;;;;;;94.40;89.78;;;;;;;10.61;67.82;100664.03;5030292;28;20034;-70
2023/12/12 02:28:21;;;;;;;89.57;84.95;;;;;;;10.60;67.69;100671.28;5030133;28;20424;-70
2023/12/12 02:30:47;;;;;;;92.72;88.63;;;;;;;10.59;67.70;100668.84;5029132;28;20049;-69
2023/12/12 02:33:12;;;;;;;90.28;86.22;;;;;;;10.58;67.56;100672.59;5029011;28;20078;-69
2023/12/12 02:35:37;;;;;;;90.70;86.70;;;;;;;10.57;67.58;100668.25;5031684;28;20037;-69
2023/12/12 02:38:03;;;;;;;91.30;87.20;;;;;;;10.56;67.71;100666.63;5029137;28;20091;-70
2023/12/12 02:40:28;;;;;;;90.45;86.25;;;;;;;10.55;67.50;100664.97;5042346;28;20044;-71
2023/12/12 02:42:54;;;;;;;93.28;89.15;;;;;;;10.53;67.39;100665.25;5037574;28;20500;-70
2023/12/12 02:45:19;;;;;;;90.75;86.75;;;;;;;10.52;67.44;100665.47;5039191;28;20037;-69
2023/12/12 02:47:44;;;;;;;90.72;86.55;;;;;;;10.51;67.58;100659.25;5034391;28;20118;-70
2023/12/12 02:50:10;;;;;;;96.47;91.88;;;;;;;10.48;67.57;100659.75;5030615;28;20044;-69
2023/12/12 02:52:35;;;;;;;93.30;88.07;;;;;;;10.47;67.69;100650.00;5030679;28;20064;-69
2023/12/12 02:55:01;;;;;;;94.20;88.78;;;;;;;10.47;67.29;100658.09;5033113;28;20542;-69
2023/12/12 02:57:26;;;;;;;91.18;86.43;;;;;;;10.46;67.54;100652.94;5037842;28;20025;-68
2023/12/12 02:59:52;;;;;;;87.95;84.10;;;;;;;10.44;67.35;100646.97;5032818;28;20521;-69
2023/12/12 03:02:17;;;;;;;85.03;81.28;;;;;;;10.43;67.57;100635.34;5064054;28;20433;-68
2023/12/12 03:04:43;;;;;;;90.88;86.45;;;;;;;10.42;67.31;100633.72;5032089;28;20040;-68
2023/12/12 03:07:09;;;;;;;89.30;85.13;;;;;;;10.42;67.50;100632.91;5017218;28;20065;-69
2023/12/12 03:09:34;;;;;;;94.40;90.20;;;;;;;10.39;67.53;100629.63;5033882;28;20064;-68
2023/12/12 03:12:00;;;;;;;90.47;86.15;;;;;;;10.39;67.41;100624.22;5024371;28;20026;-69
2023/12/12 03:14:30;;;;;;;91.72;86.88;;;;;;;10.37;67.33;100637.13;5034281;28;20044;-68
2023/12/12 03:16:58;;;;;;;83.40;79.63;;;;;;;10.36;67.42;100635.50;5040421;28;20455;-69
2023/12/12 03:19:24;;;;;;;91.20;86.95;;;;;;;10.36;67.37;100629.28;5031792;28;20517;-69
2023/12/12 03:21:50;;;;;;;91.80;86.38;;;;;;;10.35;67.27;100623.06;5034495;28;20056;-69
2023/12/12 03:24:18;;;;;;;91.28;87.10;;;;;;;10.34;67.40;100626.81;5023451;28;20053;-69
2023/12/12 03:26:43;;;;;;;88.22;84.30;;;;;;;10.32;67.35;100628.94;5018990;28;20046;-68
2023/12/12 03:29:09;;;;;;;91.45;86.80;;;;;;;10.32;67.33;100623.53;5018077;28;20049;-69
2023/12/12 03:31:35;;;;;;;90.38;85.55;;;;;;;10.30;67.54;100630.25;5029380;28;20038;-69
2023/12/12 03:34:00;;;;;;;93.22;88.55;;;;;;;10.29;67.42;100634.03;5032078;28;20452;-69
2023/12/12 03:36:25;;;;;;;92.75;88.13;;;;;;;10.28;67.23;100621.56;5029907;28;20056;-68
2023/12/12 03:38:51;;;;;;;97.25;92.28;;;;;;;10.27;67.29;100618.03;5028667;28;20038;-67
2023/12/12 03:41:16;;;;;;;92.78;88.28;;;;;;;10.27;67.44;100609.13;5022444;28;20033;-68
2023/12/12 03:43:42;;;;;;;91.82;86.97;;;;;;;10.26;67.19;100621.81;5021806;28;20125;-69
2023/12/12 03:46:12;;;;;;;91.22;86.82;;;;;;;10.25;67.35;100608.53;5038056;28;20429;-70
2023/12/12 03:48:37;;;;;;;88.78;84.80;;;;;;;10.25;67.25;100601.25;5034288;28;20033;-69
2023/12/12 03:51:03;;;;;;;95.60;90.85;;;;;;;10.24;67.20;100604.22;5031882;28;20061;-68
2023/12/12 03:53:28;;;;;;;90.38;85.50;;;;;;;10.22;67.39;100588.25;5028999;28;20493;-68
2023/12/12 03:55:53;;;;;;;93.45;89.05;;;;;;;10.21;67.20;100586.63;5032738;28;20115;-68
2023/12/12 03:58:19;;;;;;;85.40;81.60;;;;;;;10.21;67.39;100588.50;5032078;28;20044;-68
2023/12/12 04:00:44;;;;;;;89.78;85.57;;;;;;;10.20;67.35;100587.66;5036429;28;20025;-68
2023/12/12 04:03:10;;;;;;;91.43;87.22;;;;;;;10.18;67.77;100590.63;5031002;28;20029;-69
2023/12/12 04:05:35;;;;;;;87.75;83.68;;;;;;;10.18;67.22;100589.81;5035195;28;20072;-68
2023/12/12 04:08:00;;;;;;;85.35;81.28;;;;;;;10.16;67.43;100587.34;5020181;28;20041;-70
2023/12/12 04:10:26;;;;;;;92.30;88.00;;;;;;;10.15;67.17;100585.72;5029524;28;20061;-68
2023/12/12 04:12:51;;;;;;;90.63;86.32;;;;;;;10.13;67.40;100579.75;5021735;28;20032;-68
2023/12/12 04:15:17;;;;;;;87.90;83.82;;;;;;;10.13;67.43;100573.50;5013544;28;20037;-69
2023/12/12 04:17:42;;;;;;;90.28;86.05;;;;;;;10.12;67.29;100566.47;5025485;28;20053;-69
2023/12/12 04:20:08;;;;;;;84.65;80.55;;;;;;;10.11;67.29;100562.16;5013397;28;20065;-68
2023/12/12 04:22:33;;;;;;;92.82;87.88;;;;;;;10.10;67.14;100566.72;5023629;28;20068;-68
2023/12/12 04:24:59;;;;;;;88.80;84.78;;;;;;;10.10;67.51;100565.91;5029927;28;20502;-68
2023/12/12 04:27:24;;;;;;;88.40;84.40;;;;;;;10.10;67.22;100568.59;5030238;28;20120;-67
2023/12/12 04:29:50;;;;;;;84.38;80.55;;;;;;;10.10;67.28;100565.91;5030125;28;20045;-68
2023/12/12 04:32:15;;;;;;;85.72;81.72;;;;;;;10.09;67.28;100569.69;5027268;28;20090;-68
2023/12/12 04:34:41;;;;;;;90.78;86.13;;;;;;;10.07;67.36;100569.91;5034497;28;20033;-69
2023/12/12 04:37:07;;;;;;;92.45;87.85;;;;;;;10.07;67.33;100566.41;5037794;28;20037;-68
2023/12/12 04:39:33;;;;;;;92.07;87.22;;;;;;;10.05;67.25;100561.22;5031929;28;20095;-69
2023/12/12 04:41:58;;;;;;;83.65;79.85;;;;;;;10.06;67.25;100557.50;5033467;28;20504;-69
2023/12/12 04:44:23;;;;;;;85.20;81.38;;;;;;;10.05;67.39;100557.72;5029047;28;20030;-68
2023/12/12 04:46:49;;;;;;;89.07;85.07;;;;;;;10.04;67.38;100548.81;5034015;28;20437;-69
2023/12/12 04:49:15;;;;;;;87.72;83.70;;;;;;;10.04;67.28;100554.22;5020475;28;20394;-69
2023/12/12 04:51:40;;;;;;;91.50;87.03;;;;;;;10.02;67.35;100548.22;5025470;28;20056;-69
2023/12/12 04:54:05;;;;;;;87.72;83.70;;;;;;;10.01;67.39;100552.00;5019074;28;20038;-71
2023/12/12 04:56:31;;;;;;;87.28;83.28;;;;;;;10.01;67.49;100548.50;5043076;28;20473;-69
2023/12/12 04:58:56;;;;;;;86.03;81.85;;;;;;;9.99;67.36;100543.34;5042856;28;20033;-68
2023/12/12 05:01:22;;;;;;;86.53;82.47;;;;;;;10.00;67.10;100538.75;5032086;28;20465;-69
2023/12/12 05:03:47;;;;;;;85.47;81.60;;;;;;;9.99;67.40;100542.50;5019063;28;20038;-69
2023/12/12 05:06:13;;;;;;;91.60;87.25;;;;;;;9.97;67.40;100534.66;5027779;28;20033;-69
2023/12/12 05:08:41;;;;;;;85.15;81.32;;;;;;;9.99;67.13;100537.13;5030222;28;20490;-68
2023/12/12 05:11:07;;;;;;;92.10;86.78;;;;;;;9.97;67.33;100532.78;5029433;28;20041;-73
2023/12/12 05:13:32;;;;;;;85.72;81.60;;;;;;;9.97;67.43;100529.25;5021074;28;20030;-68
2023/12/12 05:15:58;;;;;;;82.38;78.47;;;;;;;9.96;67.47;100531.16;5029804;28;20055;-70
2023/12/12 05:18:23;;;;;;;82.80;79.07;;;;;;;9.95;67.34;100521.44;5032938;28;20115;-69
2023/12/12 05:20:48;;;;;;;85.72;81.40;;;;;;;9.95;67.40;100518.72;5016464;28;20064;-71
2023/12/12 05:23:14;;;;;;;87.80;82.43;;;;;;;9.94;67.24;100510.88;5017627;28;21658;-69
2023/12/12 05:25:42;;;;;;;85.40;81.13;;;;;;;9.93;67.40;100514.63;5029905;28;20048;-69
2023/12/12 05:28:07;;;;;;;85.72;81.35;;;;;;;9.93;67.44;100511.94;5037878;28;20384;-73
2023/12/12 05:30:33;;;;;;;84.07;79.38;;;;;;;9.91;67.21;100512.16;5025665;28;20045;-69
2023/12/12 05:32:58;;;;;;;83.03;79.03;;;;;;;9.91;67.30;100517.56;5028505;28;20422;-69
2023/12/12 05:35:24;;;;;;;84.72;79.80;;;;;;;9.91;67.32;100505.97;5014390;28;20057;-70
2023/12/12 05:37:49;;;;;;;87.50;83.15;;;;;;;9.91;67.34;100514.06;5033847;28;20037;-69
2023/12/12 05:40:15;;;;;;;89.10;84.70;;;;;;;9.91;67.45;100516.75;5030982;28;20040;-69
2023/12/12 05:42:41;;;;;;;89.85;85.53;;;;;;;9.90;67.35;100512.41;5033383;28;20535;-70
2023/12/12 05:45:07;;;;;;;81.63;77.45;;;;;;;9.89;67.38;100519.69;5030207;28;20029;-69
2023/12/12 05:47:33;;;;;;;83.72;80.03;;;;;;;9.89;67.32;100516.97;5030425;28;20034;-69
2023/12/12 05:49:58;;;;;;;85.07;81.18;;;;;;;9.88;67.35;100517.25;5034270;28;20168;-69
2023/12/12 05:52:25;;;;;;;86.28;81.60;;;;;;;9.89;67.35;100521.56;5022809;28;20037;-69
2023/12/12 05:54:51;;;;;;;85.28;81.25;;;;;;;9.88;67.50;100519.94;5030653;28;20375;-70
2023/12/12 05:57:16;;;;;;;83.63;79.72;;;;;;;9.87;67.33;100516.41;5026441;28;20041;-70
2023/12/12 05:59:41;;;;;;;84.22;80.25;;;;;;;9.87;67.51;100508.31;5029507;28;20036;-69
2023/12/12 06:02:07;;;;;;;85.07;80.97;;;;;;;9.87;67.46;100510.19;5021746;28;20486;-70
2023/12/12 06:04:35;;;;;;;87.63;83.43;;;;;;;9.85;67.48;100502.38;5017674;28;20048;-69
2023/12/12 06:07:01;;;;;;;88.30;83.40;;;;;;;9.85;67.51;100493.44;5019504;28;20048;-69
2023/12/12 06:09:27;;;;;;;82.18;77.90;;;;;;;9.85;67.55;100488.88;5025689;28;20030;-70
2023/12/12 06:11:52;;;;;;;82.47;78.32;;;;;;;9.84;67.46;100489.91;5037175;28;20043;-69
2023/12/12 06:14:18;;;;;;;82.85;79.07;;;;;;;9.84;67.34;100487.22;5020403;28;20041;-70
2023/12/12 06:16:43;;;;;;;82.90;78.97;;;;;;;9.83;67.43;100480.19;5022657;28;20377;-71
2023/12/12 06:19:09;;;;;;;88.80;84.30;;;;;;;9.83;67.43;100477.50;5028907;28;20523;-69
2023/12/12 06:21:34;;;;;;;84.38;80.57;;;;;;;9.82;67.58;100478.56;5026619;28;20038;-69
2023/12/12 06:24:01;;;;;;;84.28;79.72;;;;;;;9.83;67.39;100479.41;5022240;28;20037;-70
2023/12/12 06:26:27;;;;;;;84.07;79.65;;;;;;;9.83;67.34;100469.41;5027921;28;20119;-69
2023/12/12 06:28:52;;;;;;;81.00;76.63;;;;;;;9.83;67.42;100479.41;5025083;28;20123;-70
2023/12/12 06:31:18;;;;;;;85.28;81.00;;;;;;;9.83;67.50;100474.00;5018399;28;20047;-70
2023/12/12 06:33:43;;;;;;;84.45;80.15;;;;;;;9.82;67.52;100472.34;5039790;28;20025;-70
2023/12/12 06:36:09;;;;;;;81.43;77.78;;;;;;;9.82;67.41;100459.66;5035898;28;20037;-70
2023/12/12 06:38:35;;;;;;;78.40;74.38;;;;;;;9.83;67.49;100463.22;5033991;28;20021;-69
2023/12/12 06:41:00;;;;;;;82.40;77.30;;;;;;;9.83;67.41;100460.50;5020478;28;20092;-68
2023/12/12 06:43:25;;;;;;;81.88;77.78;;;;;;;9.82;67.40;100465.06;5013751;28;20038;-69
2023/12/12 06:45:51;;;;;;;82.00;78.03;;;;;;;9.81;67.46;100455.34;5035627;28;20370;-69
2023/12/12 06:48:17;;;;;;;83.90;79.85;;;;;;;9.81;67.46;100449.94;5028424;28;20091;-70
2023/12/12 06:50:43;;;;;;;84.60;80.60;;;;;;;9.82;67.43;100450.75;5028289;28;20048;-69
2023/12/12 06:53:08;;;;;;;81.30;77.35;;;;;;;9.82;67.47;100446.19;5015811;28;20030;-70
2023/12/12 06:55:34;;;;;;;85.00;80.40;;;;;;;9.83;67.46;100450.53;5010470;28;20145;-69
2023/12/12 06:58:00;;;;;;;83.88;79.60;;;;;;;9.82;67.42;100448.88;5025936;28;20400;-77
2023/12/12 07:00:25;;;;;;;82.90;78.30;;;;;;;9.82;67.61;100445.38;5018607;28;20044;-69
2023/12/12 07:02:50;;;;;;;84.88;80.57;;;;;;;9.81;67.52;100444.56;5022170;28;20091;-68
2023/12/12 07:05:16;;;;;;;85.97;81.88;;;;;;;9.82;67.50;100439.97;5026366;28;20470;-70
2023/12/12 07:07:41;;;;;;;81.63;77.60;;;;;;;9.82;67.57;100445.38;5030672;28;20493;-69
2023/12/12 07:10:07;;;;;;;88.97;83.85;;;;;;;9.81;67.54;100441.84;5030435;28;20091;-69
2023/12/12 07:12:33;;;;;;;85.65;81.32;;;;;;;9.82;67.45;100445.38;5027202;28;20030;-70
2023/12/12 07:14:58;;;;;;;87.22;82.68;;;;;;;9.81;67.19;100447.25;5019818;28;20417;-70
2023/12/12 07:17:24;;;;;;;86.22;80.95;;;;;;;9.82;67.55;100448.06;5027826;28;20079;-69
2023/12/12 07:19:49;;;;;;;81.72;77.93;;;;;;;9.81;67.41;100439.16;5027434;28;20107;-69
2023/12/12 07:22:15;;;;;;;81.70;77.57;;;;;;;9.81;67.59;100433.78;5012983;28;20382;-69
2023/12/12 07:24:41;;;;;;;83.95;79.30;;;;;;;9.81;67.53;100444.56;5029728;28;20492;-68
2023/12/12 07:27:06;;;;;;;83.78;78.72;;;;;;;9.80;67.54;100431.31;5030467;28;20495;-68
2023/12/12 07:29:32;;;;;;;80.72;76.47;;;;;;;9.81;67.45;100424.88;5027653;28;20108;-69
2023/12/12 07:31:57;;;;;;;83.50;79.63;;;;;;;9.81;67.76;100422.16;5010804;28;20030;-72
2023/12/12 07:34:22;;;;;;;82.80;78.28;;;;;;;9.80;67.51;100407.03;5027892;28;20049;-69
2023/12/12 07:36:49;;;;;;;81.22;77.43;;;;;;;9.80;67.46;100409.72;5010418;28;20498;-69
2023/12/12 07:39:15;;;;;;;81.65;77.22;;;;;;;9.80;67.34;100409.72;5032012;28;20370;-69
2023/12/12 07:41:41;;;;;;;84.72;80.07;;;;;;;9.78;67.54;100401.91;5032422;28;20033;-68
2023/12/12 07:44:06;;;;;;;80.20;76.50;;;;;;;9.78;67.76;100399.19;5029734;28;20496;-69
2023/12/12 07:46:38;;;;;;;80.50;76.60;;;;;;;9.77;67.60;100392.16;5014309;28;20033;-69
2023/12/12 07:49:07;;;;;;;82.13;77.90;;;;;;;9.78;67.65;100390.25;5018269;28;20742;-68
2023/12/12 07:51:33;;;;;;;83.47;78.63;;;;;;;9.78;67.72;100395.66;5026576;28;20064;-68
2023/12/12 07:54:01;;;;;;;76.35;72.30;;;;;;;9.78;67.58;100387.56;5025162;28;20053;-69
2023/12/12 07:56:26;;;;;;;82.60;78.63;;;;;;;9.76;67.91;100393.22;5023722;28;20092;-68
2023/12/12 07:58:52;;;;;;;81.20;77.50;;;;;;;9.77;67.49;100388.66;5014177;28;20030;-69
2023/12/12 08:01:17;;;;;;;78.25;74.25;;;;;;;9.77;67.47;100388.66;5017117;28;20108;-69
2023/12/12 08:03:42;;;;;;;81.07;77.38;;;;;;;9.75;67.12;100392.41;5019072;28;20144;-68
2023/12/12 08:06:08;;;;;;;77.63;73.93;;;;;;;9.75;67.59;100402.38;5025562;28;20591;-68
2023/12/12 08:08:34;;;;;;;82.65;78.13;;;;;;;9.73;67.73;100397.22;5032211;28;20429;-72
2023/12/12 08:11:00;;;;;;;83.20;79.40;;;;;;;9.74;67.58;100392.66;5033128;28;20064;-70
2023/12/12 08:13:26;;;;;;;78.03;74.18;;;;;;;9.75;67.57;100396.97;5014638;28;20034;-69
2023/12/12 08:15:51;;;;;;;78.93;74.93;;;;;;;9.74;67.59;100384.56;5031625;28;20064;-68
2023/12/12 08:18:17;;;;;;;82.28;78.38;;;;;;;9.73;67.60;100391.03;5015526;28;20038;-69
2023/12/12 08:20:43;;;;;;;81.80;76.82;;;;;;;9.72;67.58;100370.50;5017366;28;20144;-69
2023/12/12 08:23:09;;;;;;;78.88;75.25;;;;;;;9.73;67.70;100380.25;5026477;28;20393;-68
2023/12/12 08:25:35;;;;;;;79.07;74.50;;;;;;;9.72;67.53;100374.00;5031118;28;20037;-69
2023/12/12 08:28:00;;;;;;;79.82;75.82;;;;;;;9.72;67.74;100367.78;5021065;28;20057;-69
2023/12/12 08:30:26;;;;;;;81.53;77.03;;;;;;;9.71;67.58;100364.28;5030843;28;20048;-73
2023/12/12 08:32:52;;;;;;;78.47;74.65;;;;;;;9.72;67.58;100367.78;5015335;28;20112;-68
2023/12/12 08:35:17;;;;;;;76.95;72.97;;;;;;;9.71;67.66;100360.78;5017893;28;20044;-69
2023/12/12 08:37:42;;;;;;;82.05;78.15;;;;;;;9.71;67.95;100367.00;5013273;28;20030;-69
2023/12/12 08:40:09;;;;;;;79.07;75.35;;;;;;;9.70;67.72;100362.66;5028656;28;20044;-69
2023/12/12 08:42:35;;;;;;;85.63;80.90;;;;;;;9.70;67.81;100359.13;5038289;28;20527;-69
2023/12/12 08:45:02;;;;;;;80.93;76.78;;;;;;;9.70;67.80;100354.56;5013618;28;20029;-69
2023/12/12 08:47:27;;;;;;;82.15;77.90;;;;;;;9.69;67.92;100357.50;5025810;28;20052;-71
2023/12/12 08:49:52;;;;;;;81.45;77.40;;;;;;;9.68;67.95;100345.09;5018963;28;20025;-69
2023/12/12 08:52:18;;;;;;;83.00;78.63;;;;;;;9.69;67.89;100346.72;5029149;28;20072;-70
2023/12/12 08:54:47;;;;;;;83.75;79.13;;;;;;;9.68;67.90;100342.41;5011239;28;20453;-68
2023/12/12 08:57:13;;;;;;;77.00;72.70;;;;;;;9.68;67.99;100337.81;5029704;28;20037;-69
2023/12/12 08:59:39;;;;;;;82.82;77.45;;;;;;;9.69;67.96;100342.13;5012942;28;20532;-67
2023/12/12 09:02:04;;;;;;;82.22;78.43;;;;;;;9.70;68.03;100340.25;5016934;28;20041;-69
2023/12/12 09:04:32;;;;;;;86.15;81.03;;;;;;;9.72;68.14;100335.44;5021103;28;20034;-71
2023/12/12 09:06:58;;;;;;;81.25;76.32;;;;;;;9.73;68.15;100327.09;5019794;28;20099;-68
2023/12/12 09:09:25;;;;;;;85.13;80.85;;;;;;;9.72;68.22;100321.94;5017536;28;20774;-69
2023/12/12 09:11:51;;;;;;;82.40;77.80;;;;;;;9.73;68.37;100313.63;5012430;28;20049;-71
2023/12/12 09:14:16;;;;;;;79.85;75.13;;;;;;;9.74;68.07;100307.16;5018013;28;20057;-70
2023/12/12 09:16:42;;;;;;;81.32;77.50;;;;;;;9.75;68.35;100310.66;5026843;28;20064;-69
2023/12/12 09:19:08;;;;;;;78.22;73.95;;;;;;;9.77;68.42;100305.84;5043442;28;20556;-71
2023/12/12 09:21:34;;;;;;;84.68;79.63;;;;;;;9.77;68.33;100297.75;5009929;28;20037;-72
2023/12/12 09:23:59;;;;;;;81.65;77.55;;;;;;;9.79;68.49;100294.81;5015261;28;20053;-69
2023/12/12 09:26:24;;;;;;;83.53;79.45;;;;;;;9.80;68.69;100283.75;5010642;28;20060;-68
2023/12/12 09:28:50;;;;;;;80.70;75.95;;;;;;;9.80;68.65;100288.34;5021509;28;20037;-69
2023/12/12 09:31:24;;;;;;;75.97;72.15;;;;;;;9.81;68.60;100290.81;5012355;28;20080;-69
2023/12/12 09:33:50;;;;;;;81.47;77.38;;;;;;;9.82;68.61;100281.63;5016070;28;20610;-69
2023/12/12 09:36:15;;;;;;;80.97;77.28;;;;;;;9.82;68.79;100276.25;5018367;28;20049;-69
2023/12/12 09:38:40;;;;;;;82.65;78.65;;;;;;;9.83;68.75;100277.06;5014268;28;20192;-69
2023/12/12 09:41:14;;;;;;;85.03;80.45;;;;;;;9.84;68.81;100279.50;5016975;28;20068;-68
2023/12/12 09:43:40;;;;;;;85.45;80.82;;;;;;;9.86;68.73;100268.47;5012731;28;20083;-68
2023/12/12 09:46:06;;;;;;;81.15;77.57;;;;;;;9.86;68.67;100268.47;5025729;28;20339;-68
2023/12/12 09:48:32;;;;;;;84.72;80.85;;;;;;;9.87;68.72;100262.00;5009629;28;20041;-71
2023/12/12 09:50:58;;;;;;;86.13;80.88;;;;;;;9.88;68.84;100261.78;5003876;28;20378;-69
2023/12/12 09:53:25;;;;;;;88.68;84.10;;;;;;;9.90;68.63;100258.81;5021559;28;20038;-69
2023/12/12 09:55:52;;;;;;;85.07;81.18;;;;;;;9.89;69.14;100255.28;5023847;28;20132;-70
2023/12/12 09:58:17;;;;;;;83.97;79.97;;;;;;;9.90;69.20;100254.25;5022399;28;20029;-69
2023/12/12 10:00:42;;;;;;;84.65;79.38;;;;;;;9.90;69.13;100245.31;5016903;28;20030;-69
2023/12/12 10:03:08;;;;;;;84.72;80.15;;;;;;;9.91;69.06;100241.56;5028026;28;20039;-70
2023/12/12 10:05:37;;;;;;;82.75;78.72;;;;;;;9.91;69.08;100236.97;5034162;28;20037;-71
2023/12/12 10:08:04;;;;;;;85.10;80.95;;;;;;;9.92;69.05;100227.81;5017222;28;20062;-69
2023/12/12 10:10:29;;;;;;;88.97;84.82;;;;;;;9.94;69.26;100230.28;5018294;28;20033;-69
2023/12/12 10:12:55;;;;;;;82.28;78.60;;;;;;;9.95;69.25;100219.25;5025390;28;20048;-68
2023/12/12 10:15:25;;;;;;;84.22;80.32;;;;;;;9.94;69.14;100214.88;5025081;28;20041;-69
2023/12/12 10:17:55;;;;;;;85.22;81.22;;;;;;;9.95;68.92;100213.00;5023412;28;20037;-69
2023/12/12 10:20:26;;;;;;;88.13;83.07;;;;;;;9.96;69.19;100210.06;5021779;28;20053;-70
2023/12/12 10:23:00;;;;;;;85.03;80.57;;;;;;;9.97;69.37;100211.69;5027813;28;20084;-69
2023/12/12 10:25:28;;;;;;;82.90;78.68;;;;;;;9.99;69.23;100200.66;5011826;28;20038;-70
2023/12/12 10:27:53;;;;;;;83.50;79.55;;;;;;;9.98;69.20;100199.03;5026117;28;20030;-69
2023/12/12 10:30:23;;;;;;;83.47;79.18;;;;;;;10.01;69.22;100203.09;5011989;28;20397;-69
2023/12/12 10:32:53;;;;;;;82.30;78.43;;;;;;;10.00;69.39;100201.47;5028803;28;20041;-69
2023/12/12 10:35:23;;;;;;;82.20;78.00;;;;;;;9.99;69.17;100199.84;5014882;28;20029;-70
2023/12/12 10:37:50;;;;;;;81.28;77.53;;;;;;;10.00;69.26;100188.78;5024516;28;20037;-68
2023/12/12 10:40:21;;;;;;;85.93;81.78;;;;;;;10.01;69.14;100190.44;5013902;28;20063;-69
2023/12/12 10:42:50;;;;;;;87.07;82.50;;;;;;;10.02;69.05;100191.22;5009418;28;20030;-70
2023/12/12 10:45:16;;;;;;;;;;;;;;;10.03;69.20;100184.75;5018095;28;20033;-68
2023/12/12 10:47:46;;;;;;;83.25;79.53;;;;;;;10.02;68.99;100178.56;5023640;28;20286;-69
2023/12/12 10:50:14;;;;;;;81.60;77.28;;;;;;;10.04;69.04;100176.44;5012113;28;20049;-72
2023/12/12 10:52:41;;;;;;;87.78;83.43;;;;;;;10.06;69.07;100170.78;5021011;28;20478;-71
2023/12/12 10:55:09;;;;;;;85.35;81.20;;;;;;;10.07;69.13;100167.81;5020792;28;20478;-71
2023/12/12 10:57:38;;;;;;;86.38;82.45;;;;;;;10.09;69.12;100159.47;5011035;28;20034;-70
2023/12/12 11:00:11;;;;;;;88.70;83.75;;;;;;;10.10;69.17;100151.09;5031168;28;20490;-69
2023/12/12 11:02:41;;;;;;;84.85;80.72;;;;;;;10.11;69.22;100150.06;5020058;28;20045;-71
2023/12/12 11:05:14;;;;;;;83.20;79.40;;;;;;;10.13;69.29;100142.53;5018816;28;20182;-70
2023/12/12 11:07:42;;;;;;;85.05;81.05;;;;;;;10.16;69.40;100131.22;5015834;28;20033;-72